This is the latest recevied weather packets stored in our database for station/object PY1LEO-13. If no packets are shown the sender has not sent any weather packets the latest 10 day(s).
| Time | Temp. | Humidity | Pressure | Rain* | Wind** | Luminosity | Snow |
|---|---|---|---|---|---|---|---|
| 1777406159 | 27.78° C | 71% | 1014.7 hPa | - | - | - | - |
| 1777405859 | 27.78° C | 70% | 1014.7 hPa | - | - | - | - |
| 1777405559 | 28.33° C | 68% | 1014.6 hPa | - | - | - | - |
| 1777405259 | 27.78° C | 70% | 1014.6 hPa | - | - | - | - |
| 1777404959 | 28.33° C | 67% | 1014.6 hPa | - | - | - | - |
| 1777404659 | 28.33° C | 68% | 1014.5 hPa | - | - | - | - |
| 1777404359 | 28.33° C | 68% | 1014.5 hPa | - | - | - | - |
| 1777404059 | 28.33° C | 68% | 1014.5 hPa | - | - | - | - |
| 1777403759 | 28.89° C | 67% | 1014.5 hPa | - | - | - | - |
| 1777403459 | 28.33° C | 68% | 1014.4 hPa | - | - | - | - |
| 1777403159 | 27.78° C | 69% | 1014.3 hPa | - | - | - | - |
| 1777402859 | 28.33° C | 69% | 1014.3 hPa | - | - | - | - |
| 1777402559 | 27.78° C | 69% | 1014.4 hPa | - | - | - | - |
| 1777402259 | 28.33° C | 68% | 1014.3 hPa | - | - | - | - |
| 1777401959 | 27.78° C | 70% | 1014.3 hPa | - | - | - | - |
| 1777401659 | 28.33° C | 67% | 1014.3 hPa | - | - | - | - |
| 1777401359 | 28.33° C | 67% | 1014.3 hPa | - | - | - | - |
| 1777401059 | 28.33° C | 68% | 1014.3 hPa | - | - | - | - |
| 1777400759 | 28.33° C | 69% | 1014.3 hPa | - | - | - | - |
| 1777400459 | 27.78° C | 70% | 1014.3 hPa | - | - | - | - |
| 1777400159 | 27.78° C | 69% | 1014.3 hPa | - | - | - | - |
| 1777399859 | 27.78° C | 70% | 1014.3 hPa | - | - | - | - |
| 1777399559 | 28.89° C | 67% | 1014.3 hPa | - | - | - | - |
| 1777399259 | 28.89° C | 67% | 1014.3 hPa | - | - | - | - |
| 1777398959 | 29.44° C | 65% | 1014.3 hPa | - | - | - | - |
* Rain since midnight (hover to see other rain measurements)
** Current wind speed in m/s (hover to see current wind gust speed)